sensor_id;sensor_type;location;lat;lon;timestamp;P1;durP1;ratioP1;P2;durP2;ratioP2
26036;SDS011;13810;48.376;10.944;2022-07-12T00:00:00;10.70;;;7.28;;
26036;SDS011;13810;48.376;10.944;2022-07-12T00:00:30;11.95;;;6.40;;
26036;SDS011;13810;48.376;10.944;2022-07-12T00:01:01;8.98;;;7.20;;
26036;SDS011;13810;48.376;10.944;2022-07-12T00:01:32;10.82;;;7.00;;
26036;SDS011;13810;48.376;10.944;2022-07-12T00:02:03;8.50;;;6.55;;
26036;SDS011;13810;48.376;10.944;2022-07-12T00:02:34;8.90;;;6.20;;
26036;SDS011;13810;48.376;10.944;2022-07-12T00:03:04;8.43;;;6.00;;
26036;SDS011;13810;48.376;10.944;2022-07-12T00:03:35;7.60;;;5.82;;
26036;SDS011;13810;48.376;10.944;2022-07-12T00:04:06;7.35;;;5.75;;
26036;SDS011;13810;48.376;10.944;2022-07-12T00:04:36;9.57;;;5.65;;
26036;SDS011;13810;48.376;10.944;2022-07-12T00:05:07;6.15;;;4.72;;
26036;SDS011;13810;48.376;10.944;2022-07-12T00:05:38;6.78;;;5.50;;
26036;SDS011;13810;48.376;10.944;2022-07-12T00:06:09;6.18;;;4.47;;
26036;SDS011;13810;48.376;10.944;2022-07-12T00:06:39;7.78;;;5.22;;
26036;SDS011;13810;48.376;10.944;2022-07-12T00:07:10;7.28;;;4.90;;
26036;SDS011;13810;48.376;10.944;2022-07-12T00:07:41;7.82;;;6.18;;
26036;SDS011;13810;48.376;10.944;2022-07-12T00:08:11;6.70;;;5.10;;
26036;SDS011;13810;48.376;10.944;2022-07-12T00:08:42;6.55;;;5.13;;
26036;SDS011;13810;48.376;10.944;2022-07-12T00:09:13;7.35;;;5.15;;
26036;SDS011;13810;48.376;10.944;2022-07-12T00:09:44;7.57;;;5.43;;
26036;SDS011;13810;48.376;10.944;2022-07-12T00:10:14;7.13;;;5.13;;
26036;SDS011;13810;48.376;10.944;2022-07-12T00:10:45;7.05;;;5.00;;
26036;SDS011;13810;48.376;10.944;2022-07-12T00:11:15;7.93;;;5.63;;
26036;SDS011;13810;48.376;10.944;2022-07-12T00:11:46;9.02;;;6.22;;
26036;SDS011;13810;48.376;10.944;2022-07-12T00:12:17;9.13;;;6.53;;
26036;SDS011;13810;48.376;10.944;2022-07-12T00:12:48;7.75;;;6.00;;
26036;SDS011;13810;48.376;10.944;2022-07-12T00:13:18;7.78;;;5.43;;
26036;SDS011;13810;48.376;10.944;2022-07-12T00:13:49;6.18;;;5.43;;
26036;SDS011;13810;48.376;10.944;2022-07-12T00:14:20;7.82;;;5.57;;
26036;SDS011;13810;48.376;10.944;2022-07-12T00:14:51;8.75;;;5.85;;
26036;SDS011;13810;48.376;10.944;2022-07-12T00:15:22;7.45;;;5.57;;
26036;SDS011;13810;48.376;10.944;2022-07-12T00:15:53;8.73;;;5.55;;
26036;SDS011;13810;48.376;10.944;2022-07-12T00:16:23;7.75;;;5.80;;
26036;SDS011;13810;48.376;10.944;2022-07-12T00:16:54;10.60;;;6.65;;
26036;SDS011;13810;48.376;10.944;2022-07-12T00:17:25;9.43;;;5.85;;
26036;SDS011;13810;48.376;10.944;2022-07-12T00:17:55;7.10;;;5.82;;
26036;SDS011;13810;48.376;10.944;2022-07-12T00:18:26;9.60;;;5.88;;
26036;SDS011;13810;48.376;10.944;2022-07-12T00:18:57;9.88;;;6.10;;
26036;SDS011;13810;48.376;10.944;2022-07-12T00:19:28;8.80;;;6.50;;
26036;SDS011;13810;48.376;10.944;2022-07-12T00:19:58;8.73;;;6.15;;
26036;SDS011;13810;48.376;10.944;2022-07-12T00:20:29;8.05;;;6.18;;
26036;SDS011;13810;48.376;10.944;2022-07-12T00:21:00;10.98;;;6.55;;
26036;SDS011;13810;48.376;10.944;2022-07-12T00:21:31;8.65;;;6.20;;
26036;SDS011;13810;48.376;10.944;2022-07-12T00:22:01;10.07;;;6.07;;
26036;SDS011;13810;48.376;10.944;2022-07-12T00:22:32;8.32;;;6.15;;
26036;SDS011;13810;48.376;10.944;2022-07-12T00:23:03;10.82;;;6.70;;
26036;SDS011;13810;48.376;10.944;2022-07-12T00:23:34;9.45;;;7.07;;
26036;SDS011;13810;48.376;10.944;2022-07-12T00:24:05;8.15;;;6.43;;
26036;SDS011;13810;48.376;10.944;2022-07-12T00:24:35;10.48;;;7.07;;
26036;SDS011;13810;48.376;10.944;2022-07-12T00:25:06;10.07;;;6.50;;
26036;SDS011;13810;48.376;10.944;2022-07-12T00:25:37;9.00;;;6.95;;
26036;SDS011;13810;48.376;10.944;2022-07-12T00:26:08;8.93;;;6.57;;
26036;SDS011;13810;48.376;10.944;2022-07-12T00:26:38;10.63;;;6.47;;
26036;SDS011;13810;48.376;10.944;2022-07-12T00:27:09;7.15;;;5.93;;
26036;SDS011;13810;48.376;10.944;2022-07-12T00:27:40;10.38;;;6.32;;
26036;SDS011;13810;48.376;10.944;2022-07-12T00:28:11;7.53;;;5.97;;
26036;SDS011;13810;48.376;10.944;2022-07-12T00:28:42;8.52;;;6.28;;
26036;SDS011;13810;48.376;10.944;2022-07-12T00:29:13;7.88;;;6.30;;
26036;SDS011;13810;48.376;10.944;2022-07-12T00:29:43;9.05;;;6.20;;
26036;SDS011;13810;48.376;10.944;2022-07-12T00:30:14;10.13;;;7.10;;
26036;SDS011;13810;48.376;10.944;2022-07-12T00:30:45;8.35;;;6.38;;
26036;SDS011;13810;48.376;10.944;2022-07-12T00:31:15;8.90;;;6.90;;
26036;SDS011;13810;48.376;10.944;2022-07-12T00:31:46;11.25;;;7.78;;
26036;SDS011;13810;48.376;10.944;2022-07-12T00:32:17;10.00;;;7.63;;
26036;SDS011;13810;48.376;10.944;2022-07-12T00:32:48;10.05;;;7.18;;
26036;SDS011;13810;48.376;10.944;2022-07-12T00:33:18;7.57;;;6.53;;
26036;SDS011;13810;48.376;10.944;2022-07-12T00:33:49;13.68;;;8.38;;
26036;SDS011;13810;48.376;10.944;2022-07-12T00:34:19;8.63;;;6.85;;
26036;SDS011;13810;48.376;10.944;2022-07-12T00:34:50;9.43;;;6.90;;
26036;SDS011;13810;48.376;10.944;2022-07-12T00:35:21;11.48;;;7.97;;
26036;SDS011;13810;48.376;10.944;2022-07-12T00:35:51;11.68;;;6.95;;
26036;SDS011;13810;48.376;10.944;2022-07-12T00:36:22;10.90;;;7.63;;
26036;SDS011;13810;48.376;10.944;2022-07-12T00:36:53;10.60;;;7.20;;
26036;SDS011;13810;48.376;10.944;2022-07-12T00:37:23;8.95;;;6.85;;
26036;SDS011;13810;48.376;10.944;2022-07-12T00:37:54;11.05;;;7.63;;
26036;SDS011;13810;48.376;10.944;2022-07-12T00:38:25;13.52;;;7.65;;
26036;SDS011;13810;48.376;10.944;2022-07-12T00:38:56;10.32;;;7.40;;
26036;SDS011;13810;48.376;10.944;2022-07-12T00:39:26;10.10;;;6.95;;
26036;SDS011;13810;48.376;10.944;2022-07-12T00:39:57;10.95;;;7.68;;
26036;SDS011;13810;48.376;10.944;2022-07-12T00:40:28;10.85;;;7.43;;
26036;SDS011;13810;48.376;10.944;2022-07-12T00:40:59;9.63;;;7.28;;
26036;SDS011;13810;48.376;10.944;2022-07-12T00:41:29;11.40;;;7.90;;
26036;SDS011;13810;48.376;10.944;2022-07-12T00:42:00;14.18;;;7.47;;
26036;SDS011;13810;48.376;10.944;2022-07-12T00:42:31;13.80;;;8.45;;
26036;SDS011;13810;48.376;10.944;2022-07-12T00:43:02;12.77;;;7.90;;
26036;SDS011;13810;48.376;10.944;2022-07-12T00:43:33;11.68;;;7.88;;
26036;SDS011;13810;48.376;10.944;2022-07-12T00:44:04;10.93;;;6.82;;
26036;SDS011;13810;48.376;10.944;2022-07-12T00:44:34;9.73;;;7.13;;
26036;SDS011;13810;48.376;10.944;2022-07-12T00:45:05;11.40;;;7.13;;
26036;SDS011;13810;48.376;10.944;2022-07-12T00:45:37;9.45;;;7.50;;
26036;SDS011;13810;48.376;10.944;2022-07-12T00:46:08;16.50;;;6.97;;
26036;SDS011;13810;48.376;10.944;2022-07-12T00:46:40;12.27;;;7.47;;
26036;SDS011;13810;48.376;10.944;2022-07-12T00:47:22;10.88;;;7.43;;
26036;SDS011;13810;48.376;10.944;2022-07-12T00:48:01;11.75;;;7.38;;
26036;SDS011;13810;48.376;10.944;2022-07-12T00:48:32;8.85;;;6.03;;
26036;SDS011;13810;48.376;10.944;2022-07-12T00:49:03;8.43;;;6.57;;
26036;SDS011;13810;48.376;10.944;2022-07-12T00:49:34;8.98;;;6.65;;
26036;SDS011;13810;48.376;10.944;2022-07-12T00:50:08;9.43;;;7.05;;
26036;SDS011;13810;48.376;10.944;2022-07-12T00:50:42;12.35;;;6.60;;
26036;SDS011;13810;48.376;10.944;2022-07-12T00:51:15;9.35;;;6.57;;
26036;SDS011;13810;48.376;10.944;2022-07-12T00:51:48;11.93;;;6.75;;
26036;SDS011;13810;48.376;10.944;2022-07-12T00:52:18;10.27;;;6.63;;
26036;SDS011;13810;48.376;10.944;2022-07-12T00:52:51;10.85;;;6.68;;
26036;SDS011;13810;48.376;10.944;2022-07-12T00:53:22;10.73;;;6.75;;
26036;SDS011;13810;48.376;10.944;2022-07-12T00:53:54;11.52;;;6.68;;
26036;SDS011;13810;48.376;10.944;2022-07-12T00:54:27;8.30;;;6.45;;
26036;SDS011;13810;48.376;10.944;2022-07-12T00:54:58;8.95;;;6.65;;
26036;SDS011;13810;48.376;10.944;2022-07-12T00:55:29;10.00;;;6.70;;
26036;SDS011;13810;48.376;10.944;2022-07-12T00:55:59;8.43;;;5.97;;
26036;SDS011;13810;48.376;10.944;2022-07-12T00:56:30;7.85;;;6.68;;
26036;SDS011;13810;48.376;10.944;2022-07-12T00:57:02;9.35;;;6.60;;
26036;SDS011;13810;48.376;10.944;2022-07-12T00:57:33;8.73;;;6.18;;
26036;SDS011;13810;48.376;10.944;2022-07-12T00:58:05;7.50;;;5.80;;
26036;SDS011;13810;48.376;10.944;2022-07-12T00:58:36;8.93;;;6.63;;
26036;SDS011;13810;48.376;10.944;2022-07-12T00:59:06;8.63;;;6.82;;
26036;SDS011;13810;48.376;10.944;2022-07-12T00:59:37;8.75;;;6.85;;
26036;SDS011;13810;48.376;10.944;2022-07-12T01:00:08;8.50;;;6.60;;
26036;SDS011;13810;48.376;10.944;2022-07-12T01:00:41;8.23;;;5.85;;
26036;SDS011;13810;48.376;10.944;2022-07-12T01:01:11;8.18;;;6.13;;
26036;SDS011;13810;48.376;10.944;2022-07-12T01:01:42;10.02;;;6.10;;
26036;SDS011;13810;48.376;10.944;2022-07-12T01:02:13;9.10;;;6.00;;
26036;SDS011;13810;48.376;10.944;2022-07-12T01:02:44;11.48;;;6.95;;
26036;SDS011;13810;48.376;10.944;2022-07-12T01:03:16;8.43;;;6.30;;
26036;SDS011;13810;48.376;10.944;2022-07-12T01:03:47;8.98;;;6.30;;
26036;SDS011;13810;48.376;10.944;2022-07-12T01:04:17;10.10;;;7.10;;
26036;SDS011;13810;48.376;10.944;2022-07-12T01:04:48;9.98;;;6.97;;
26036;SDS011;13810;48.376;10.944;2022-07-12T01:05:21;9.43;;;7.03;;
26036;SDS011;13810;48.376;10.944;2022-07-12T01:05:52;10.40;;;7.28;;
26036;SDS011;13810;48.376;10.944;2022-07-12T01:06:22;9.85;;;7.60;;
26036;SDS011;13810;48.376;10.944;2022-07-12T01:06:54;10.27;;;7.35;;
26036;SDS011;13810;48.376;10.944;2022-07-12T01:07:25;10.48;;;6.70;;
26036;SDS011;13810;48.376;10.944;2022-07-12T01:07:56;11.05;;;7.30;;
26036;SDS011;13810;48.376;10.944;2022-07-12T01:08:27;11.00;;;7.20;;
26036;SDS011;13810;48.376;10.944;2022-07-12T01:09:00;8.80;;;6.90;;
26036;SDS011;13810;48.376;10.944;2022-07-12T01:09:32;10.23;;;7.40;;
26036;SDS011;13810;48.376;10.944;2022-07-12T01:10:03;9.23;;;6.70;;
26036;SDS011;13810;48.376;10.944;2022-07-12T01:10:35;8.95;;;6.75;;
26036;SDS011;13810;48.376;10.944;2022-07-12T01:11:07;8.75;;;6.68;;
26036;SDS011;13810;48.376;10.944;2022-07-12T01:11:38;9.77;;;7.28;;
26036;SDS011;13810;48.376;10.944;2022-07-12T01:12:09;10.23;;;6.38;;
26036;SDS011;13810;48.376;10.944;2022-07-12T01:12:40;11.27;;;7.22;;
26036;SDS011;13810;48.376;10.944;2022-07-12T01:13:12;11.32;;;7.45;;
26036;SDS011;13810;48.376;10.944;2022-07-12T01:13:43;10.85;;;7.47;;
26036;SDS011;13810;48.376;10.944;2022-07-12T01:14:15;10.68;;;6.97;;
26036;SDS011;13810;48.376;10.944;2022-07-12T01:14:46;9.75;;;7.13;;
26036;SDS011;13810;48.376;10.944;2022-07-12T01:15:18;9.50;;;6.53;;
26036;SDS011;13810;48.376;10.944;2022-07-12T01:15:51;11.50;;;6.85;;
26036;SDS011;13810;48.376;10.944;2022-07-12T01:16:22;10.15;;;5.80;;
26036;SDS011;13810;48.376;10.944;2022-07-12T01:16:54;7.95;;;6.65;;
26036;SDS011;13810;48.376;10.944;2022-07-12T01:17:26;11.77;;;6.65;;
26036;SDS011;13810;48.376;10.944;2022-07-12T01:17:57;9.68;;;6.60;;
26036;SDS011;13810;48.376;10.944;2022-07-12T01:18:30;10.10;;;7.07;;
26036;SDS011;13810;48.376;10.944;2022-07-12T01:19:01;10.88;;;5.85;;
26036;SDS011;13810;48.376;10.944;2022-07-12T01:19:36;10.02;;;7.18;;
26036;SDS011;13810;48.376;10.944;2022-07-12T01:20:08;7.82;;;6.00;;
26036;SDS011;13810;48.376;10.944;2022-07-12T01:20:39;8.38;;;5.93;;
26036;SDS011;13810;48.376;10.944;2022-07-12T01:21:10;8.23;;;6.43;;
26036;SDS011;13810;48.376;10.944;2022-07-12T01:21:48;8.98;;;6.15;;
26036;SDS011;13810;48.376;10.944;2022-07-12T01:22:20;7.30;;;5.72;;
26036;SDS011;13810;48.376;10.944;2022-07-12T01:22:57;6.90;;;5.40;;
26036;SDS011;13810;48.376;10.944;2022-07-12T01:23:29;7.47;;;5.45;;
26036;SDS011;13810;48.376;10.944;2022-07-12T01:24:00;6.85;;;5.40;;
26036;SDS011;13810;48.376;10.944;2022-07-12T01:24:31;7.47;;;5.35;;
26036;SDS011;13810;48.376;10.944;2022-07-12T01:25:03;6.45;;;5.25;;
26036;SDS011;13810;48.376;10.944;2022-07-12T01:25:34;6.97;;;5.75;;
26036;SDS011;13810;48.376;10.944;2022-07-12T01:26:05;8.05;;;5.50;;
26036;SDS011;13810;48.376;10.944;2022-07-12T01:26:36;8.77;;;5.60;;
26036;SDS011;13810;48.376;10.944;2022-07-12T01:27:07;8.82;;;5.30;;
26036;SDS011;13810;48.376;10.944;2022-07-12T01:27:40;7.13;;;5.78;;
26036;SDS011;13810;48.376;10.944;2022-07-12T01:28:10;8.55;;;5.70;;
26036;SDS011;13810;48.376;10.944;2022-07-12T01:28:42;6.63;;;5.50;;
26036;SDS011;13810;48.376;10.944;2022-07-12T01:29:13;8.10;;;5.47;;
26036;SDS011;13810;48.376;10.944;2022-07-12T01:29:45;7.40;;;5.72;;
26036;SDS011;13810;48.376;10.944;2022-07-12T01:30:15;8.85;;;6.18;;
26036;SDS011;13810;48.376;10.944;2022-07-12T01:30:47;7.38;;;5.38;;
26036;SDS011;13810;48.376;10.944;2022-07-12T01:31:18;6.65;;;5.43;;
26036;SDS011;13810;48.376;10.944;2022-07-12T01:31:48;6.53;;;5.68;;
26036;SDS011;13810;48.376;10.944;2022-07-12T01:32:19;8.05;;;5.70;;
26036;SDS011;13810;48.376;10.944;2022-07-12T01:32:57;7.93;;;5.65;;
26036;SDS011;13810;48.376;10.944;2022-07-12T01:33:29;8.60;;;5.93;;
26036;SDS011;13810;48.376;10.944;2022-07-12T01:34:01;10.82;;;6.55;;
26036;SDS011;13810;48.376;10.944;2022-07-12T01:34:36;9.20;;;6.63;;
26036;SDS011;13810;48.376;10.944;2022-07-12T01:35:07;8.40;;;6.32;;
26036;SDS011;13810;48.376;10.944;2022-07-12T01:35:38;8.35;;;5.32;;
26036;SDS011;13810;48.376;10.944;2022-07-12T01:36:10;7.38;;;5.63;;
26036;SDS011;13810;48.376;10.944;2022-07-12T01:36:40;6.07;;;5.22;;
26036;SDS011;13810;48.376;10.944;2022-07-12T01:37:13;7.75;;;5.85;;
26036;SDS011;13810;48.376;10.944;2022-07-12T01:37:44;6.75;;;5.57;;
26036;SDS011;13810;48.376;10.944;2022-07-12T01:38:16;7.85;;;5.85;;
26036;SDS011;13810;48.376;10.944;2022-07-12T01:38:47;7.15;;;5.72;;
26036;SDS011;13810;48.376;10.944;2022-07-12T01:39:17;8.75;;;6.38;;
26036;SDS011;13810;48.376;10.944;2022-07-12T01:39:49;9.20;;;6.43;;
26036;SDS011;13810;48.376;10.944;2022-07-12T01:40:22;8.07;;;5.43;;
26036;SDS011;13810;48.376;10.944;2022-07-12T01:40:53;7.60;;;5.68;;
26036;SDS011;13810;48.376;10.944;2022-07-12T01:41:24;7.88;;;6.32;;
26036;SDS011;13810;48.376;10.944;2022-07-12T01:41:55;9.82;;;6.55;;
26036;SDS011;13810;48.376;10.944;2022-07-12T01:42:27;8.85;;;6.45;;
26036;SDS011;13810;48.376;10.944;2022-07-12T01:42:59;8.82;;;6.13;;
26036;SDS011;13810;48.376;10.944;2022-07-12T01:43:30;8.85;;;6.07;;
26036;SDS011;13810;48.376;10.944;2022-07-12T01:44:01;8.30;;;6.22;;
26036;SDS011;13810;48.376;10.944;2022-07-12T01:44:32;8.98;;;6.57;;
26036;SDS011;13810;48.376;10.944;2022-07-12T01:45:04;8.57;;;6.20;;
26036;SDS011;13810;48.376;10.944;2022-07-12T01:45:36;8.60;;;6.57;;
26036;SDS011;13810;48.376;10.944;2022-07-12T01:46:07;7.82;;;6.22;;
26036;SDS011;13810;48.376;10.944;2022-07-12T01:46:37;8.93;;;6.70;;
26036;SDS011;13810;48.376;10.944;2022-07-12T01:47:08;10.20;;;6.78;;
26036;SDS011;13810;48.376;10.944;2022-07-12T01:47:40;10.02;;;6.95;;
26036;SDS011;13810;48.376;10.944;2022-07-12T01:48:10;9.45;;;7.03;;
26036;SDS011;13810;48.376;10.944;2022-07-12T01:48:41;10.77;;;6.68;;
26036;SDS011;13810;48.376;10.944;2022-07-12T01:49:12;9.38;;;7.15;;
26036;SDS011;13810;48.376;10.944;2022-07-12T01:49:42;11.50;;;7.57;;
26036;SDS011;13810;48.376;10.944;2022-07-12T01:50:13;10.02;;;7.25;;
26036;SDS011;13810;48.376;10.944;2022-07-12T01:50:44;12.80;;;7.15;;
26036;SDS011;13810;48.376;10.944;2022-07-12T01:51:15;10.00;;;7.03;;
26036;SDS011;13810;48.376;10.944;2022-07-12T01:51:45;10.98;;;7.35;;
26036;SDS011;13810;48.376;10.944;2022-07-12T01:52:16;11.38;;;7.63;;
26036;SDS011;13810;48.376;10.944;2022-07-12T01:52:48;9.85;;;7.43;;
26036;SDS011;13810;48.376;10.944;2022-07-12T01:53:19;10.40;;;7.60;;
26036;SDS011;13810;48.376;10.944;2022-07-12T01:53:50;8.40;;;5.80;;
26036;SDS011;13810;48.376;10.944;2022-07-12T01:54:21;10.68;;;7.30;;
26036;SDS011;13810;48.376;10.944;2022-07-12T01:54:54;7.88;;;6.20;;
26036;SDS011;13810;48.376;10.944;2022-07-12T01:55:26;8.88;;;6.80;;
26036;SDS011;13810;48.376;10.944;2022-07-12T01:55:57;14.48;;;8.07;;
26036;SDS011;13810;48.376;10.944;2022-07-12T01:56:28;12.65;;;7.50;;
26036;SDS011;13810;48.376;10.944;2022-07-12T01:56:59;10.98;;;7.30;;
26036;SDS011;13810;48.376;10.944;2022-07-12T01:57:30;9.30;;;6.40;;
26036;SDS011;13810;48.376;10.944;2022-07-12T01:58:02;9.68;;;7.53;;
26036;SDS011;13810;48.376;10.944;2022-07-12T01:58:33;10.63;;;7.90;;
26036;SDS011;13810;48.376;10.944;2022-07-12T01:59:04;9.43;;;7.60;;
26036;SDS011;13810;48.376;10.944;2022-07-12T01:59:35;9.95;;;7.10;;
26036;SDS011;13810;48.376;10.944;2022-07-12T02:00:06;12.55;;;7.57;;
26036;SDS011;13810;48.376;10.944;2022-07-12T02:00:38;9.45;;;7.38;;
26036;SDS011;13810;48.376;10.944;2022-07-12T02:01:10;11.85;;;7.00;;
26036;SDS011;13810;48.376;10.944;2022-07-12T02:01:41;10.85;;;7.22;;
26036;SDS011;13810;48.376;10.944;2022-07-12T02:02:13;12.00;;;8.20;;
26036;SDS011;13810;48.376;10.944;2022-07-12T02:02:45;11.65;;;7.78;;
26036;SDS011;13810;48.376;10.944;2022-07-12T02:03:16;10.82;;;8.10;;
26036;SDS011;13810;48.376;10.944;2022-07-12T02:03:47;12.57;;;8.20;;
26036;SDS011;13810;48.376;10.944;2022-07-12T02:04:18;11.27;;;7.80;;
26036;SDS011;13810;48.376;10.944;2022-07-12T02:04:50;13.15;;;7.95;;
26036;SDS011;13810;48.376;10.944;2022-07-12T02:05:21;12.10;;;8.15;;
26036;SDS011;13810;48.376;10.944;2022-07-12T02:05:51;12.90;;;8.23;;
26036;SDS011;13810;48.376;10.944;2022-07-12T02:06:22;12.13;;;8.20;;
26036;SDS011;13810;48.376;10.944;2022-07-12T02:06:53;10.45;;;7.70;;
26036;SDS011;13810;48.376;10.944;2022-07-12T02:07:25;13.00;;;7.45;;
26036;SDS011;13810;48.376;10.944;2022-07-12T02:07:55;12.20;;;8.18;;
26036;SDS011;13810;48.376;10.944;2022-07-12T02:08:26;10.45;;;7.88;;
26036;SDS011;13810;48.376;10.944;2022-07-12T02:08:57;15.52;;;9.07;;
26036;SDS011;13810;48.376;10.944;2022-07-12T02:09:28;9.95;;;7.25;;
26036;SDS011;13810;48.376;10.944;2022-07-12T02:09:58;14.98;;;7.57;;
26036;SDS011;13810;48.376;10.944;2022-07-12T02:10:29;12.02;;;8.48;;
26036;SDS011;13810;48.376;10.944;2022-07-12T02:11:00;9.35;;;7.55;;
26036;SDS011;13810;48.376;10.944;2022-07-12T02:11:30;12.70;;;8.35;;
26036;SDS011;13810;48.376;10.944;2022-07-12T02:12:01;12.57;;;9.05;;
26036;SDS011;13810;48.376;10.944;2022-07-12T02:12:32;11.32;;;8.32;;
26036;SDS011;13810;48.376;10.944;2022-07-12T02:13:03;13.68;;;8.63;;
26036;SDS011;13810;48.376;10.944;2022-07-12T02:13:34;13.07;;;8.23;;
26036;SDS011;13810;48.376;10.944;2022-07-12T02:14:05;12.95;;;8.10;;
26036;SDS011;13810;48.376;10.944;2022-07-12T02:14:36;9.13;;;7.93;;
26036;SDS011;13810;48.376;10.944;2022-07-12T02:15:07;12.68;;;8.57;;
26036;SDS011;13810;48.376;10.944;2022-07-12T02:15:38;13.20;;;8.65;;
26036;SDS011;13810;48.376;10.944;2022-07-12T02:16:09;11.60;;;8.82;;
26036;SDS011;13810;48.376;10.944;2022-07-12T02:16:40;11.57;;;8.75;;
26036;SDS011;13810;48.376;10.944;2022-07-12T02:17:12;10.05;;;8.15;;
26036;SDS011;13810;48.376;10.944;2022-07-12T02:17:42;12.88;;;8.45;;
26036;SDS011;13810;48.376;10.944;2022-07-12T02:18:13;11.73;;;8.02;;
26036;SDS011;13810;48.376;10.944;2022-07-12T02:18:43;12.10;;;9.20;;
26036;SDS011;13810;48.376;10.944;2022-07-12T02:19:14;12.57;;;8.70;;
26036;SDS011;13810;48.376;10.944;2022-07-12T02:19:45;13.32;;;8.88;;
26036;SDS011;13810;48.376;10.944;2022-07-12T02:20:16;11.98;;;8.23;;
26036;SDS011;13810;48.376;10.944;2022-07-12T02:20:46;11.35;;;7.88;;
26036;SDS011;13810;48.376;10.944;2022-07-12T02:21:17;9.70;;;6.95;;
26036;SDS011;13810;48.376;10.944;2022-07-12T02:21:48;10.65;;;6.78;;
26036;SDS011;13810;48.376;10.944;2022-07-12T02:22:18;8.27;;;6.72;;
26036;SDS011;13810;48.376;10.944;2022-07-12T02:22:49;9.60;;;7.22;;
26036;SDS011;13810;48.376;10.944;2022-07-12T02:23:20;10.43;;;7.32;;
26036;SDS011;13810;48.376;10.944;2022-07-12T02:23:50;9.05;;;7.25;;
26036;SDS011;13810;48.376;10.944;2022-07-12T02:24:21;10.60;;;7.65;;
26036;SDS011;13810;48.376;10.944;2022-07-12T02:24:52;9.00;;;7.40;;
26036;SDS011;13810;48.376;10.944;2022-07-12T02:25:22;11.77;;;7.18;;
26036;SDS011;13810;48.376;10.944;2022-07-12T02:25:53;11.75;;;7.47;;
26036;SDS011;13810;48.376;10.944;2022-07-12T02:26:24;13.18;;;8.05;;
26036;SDS011;13810;48.376;10.944;2022-07-12T02:26:54;12.07;;;8.25;;
26036;SDS011;13810;48.376;10.944;2022-07-12T02:27:25;10.82;;;7.72;;
26036;SDS011;13810;48.376;10.944;2022-07-12T02:27:57;10.48;;;7.50;;
26036;SDS011;13810;48.376;10.944;2022-07-12T02:28:28;10.85;;;8.10;;
26036;SDS011;13810;48.376;10.944;2022-07-12T02:29:00;13.10;;;8.00;;
26036;SDS011;13810;48.376;10.944;2022-07-12T02:29:31;9.32;;;6.97;;
26036;SDS011;13810;48.376;10.944;2022-07-12T02:30:02;13.20;;;8.38;;
26036;SDS011;13810;48.376;10.944;2022-07-12T02:30:33;11.02;;;8.27;;
26036;SDS011;13810;48.376;10.944;2022-07-12T02:31:04;11.48;;;7.68;;
26036;SDS011;13810;48.376;10.944;2022-07-12T02:31:35;10.50;;;7.72;;
26036;SDS011;13810;48.376;10.944;2022-07-12T02:32:06;10.73;;;8.00;;
26036;SDS011;13810;48.376;10.944;2022-07-12T02:32:37;10.80;;;8.05;;
26036;SDS011;13810;48.376;10.944;2022-07-12T02:33:08;11.55;;;7.40;;
26036;SDS011;13810;48.376;10.944;2022-07-12T02:33:38;9.75;;;7.18;;
26036;SDS011;13810;48.376;10.944;2022-07-12T02:34:09;12.38;;;7.55;;
26036;SDS011;13810;48.376;10.944;2022-07-12T02:34:40;11.57;;;7.55;;
26036;SDS011;13810;48.376;10.944;2022-07-12T02:35:10;9.90;;;7.38;;
26036;SDS011;13810;48.376;10.944;2022-07-12T02:35:44;9.50;;;6.60;;
26036;SDS011;13810;48.376;10.944;2022-07-12T02:36:14;11.73;;;7.53;;
26036;SDS011;13810;48.376;10.944;2022-07-12T02:36:45;10.65;;;7.65;;
26036;SDS011;13810;48.376;10.944;2022-07-12T02:37:16;10.05;;;7.20;;
26036;SDS011;13810;48.376;10.944;2022-07-12T02:37:46;9.98;;;7.40;;
26036;SDS011;13810;48.376;10.944;2022-07-12T02:38:17;8.05;;;6.43;;
26036;SDS011;13810;48.376;10.944;2022-07-12T02:38:50;10.15;;;6.97;;
26036;SDS011;13810;48.376;10.944;2022-07-12T02:39:20;10.18;;;7.30;;
26036;SDS011;13810;48.376;10.944;2022-07-12T02:39:51;7.30;;;6.03;;
26036;SDS011;13810;48.376;10.944;2022-07-12T02:40:42;6.72;;;5.55;;
26036;SDS011;13810;48.376;10.944;2022-07-12T02:41:25;5.65;;;4.55;;
26036;SDS011;13810;48.376;10.944;2022-07-12T02:41:55;6.72;;;4.40;;
26036;SDS011;13810;48.376;10.944;2022-07-12T02:42:26;7.53;;;3.78;;
26036;SDS011;13810;48.376;10.944;2022-07-12T02:42:57;5.22;;;4.20;;
26036;SDS011;13810;48.376;10.944;2022-07-12T02:43:29;5.80;;;4.35;;
26036;SDS011;13810;48.376;10.944;2022-07-12T02:44:00;4.82;;;3.58;;
26036;SDS011;13810;48.376;10.944;2022-07-12T02:44:32;4.78;;;3.60;;
26036;SDS011;13810;48.376;10.944;2022-07-12T02:45:02;6.43;;;4.05;;
26036;SDS011;13810;48.376;10.944;2022-07-12T02:45:33;6.20;;;4.88;;
26036;SDS011;13810;48.376;10.944;2022-07-12T02:46:08;4.72;;;4.20;;
26036;SDS011;13810;48.376;10.944;2022-07-12T02:46:40;7.53;;;5.57;;
26036;SDS011;13810;48.376;10.944;2022-07-12T02:47:10;6.50;;;5.07;;
26036;SDS011;13810;48.376;10.944;2022-07-12T02:47:41;6.43;;;4.43;;
26036;SDS011;13810;48.376;10.944;2022-07-12T02:48:12;7.47;;;4.65;;
26036;SDS011;13810;48.376;10.944;2022-07-12T02:48:42;6.50;;;5.18;;
26036;SDS011;13810;48.376;10.944;2022-07-12T02:49:13;7.53;;;5.25;;
26036;SDS011;13810;48.376;10.944;2022-07-12T02:49:44;7.00;;;5.50;;
26036;SDS011;13810;48.376;10.944;2022-07-12T02:50:14;11.60;;;5.45;;
26036;SDS011;13810;48.376;10.944;2022-07-12T02:50:45;7.57;;;5.35;;
26036;SDS011;13810;48.376;10.944;2022-07-12T02:51:16;8.88;;;6.43;;
26036;SDS011;13810;48.376;10.944;2022-07-12T02:51:47;7.60;;;5.95;;
26036;SDS011;13810;48.376;10.944;2022-07-12T02:52:17;10.40;;;6.97;;
26036;SDS011;13810;48.376;10.944;2022-07-12T02:52:48;10.77;;;6.85;;
26036;SDS011;13810;48.376;10.944;2022-07-12T02:53:19;10.43;;;5.82;;
26036;SDS011;13810;48.376;10.944;2022-07-12T02:53:50;8.80;;;6.10;;
26036;SDS011;13810;48.376;10.944;2022-07-12T02:54:20;8.65;;;6.20;;
26036;SDS011;13810;48.376;10.944;2022-07-12T02:54:51;9.38;;;6.78;;
26036;SDS011;13810;48.376;10.944;2022-07-12T02:55:21;8.68;;;6.10;;
26036;SDS011;13810;48.376;10.944;2022-07-12T02:55:52;12.32;;;6.68;;
26036;SDS011;13810;48.376;10.944;2022-07-12T02:56:23;10.90;;;6.47;;
26036;SDS011;13810;48.376;10.944;2022-07-12T02:56:53;8.95;;;6.97;;
26036;SDS011;13810;48.376;10.944;2022-07-12T02:57:24;9.02;;;6.63;;
26036;SDS011;13810;48.376;10.944;2022-07-12T02:57:55;8.15;;;6.65;;
26036;SDS011;13810;48.376;10.944;2022-07-12T02:58:25;8.95;;;5.75;;
26036;SDS011;13810;48.376;10.944;2022-07-12T02:58:56;8.43;;;6.10;;
26036;SDS011;13810;48.376;10.944;2022-07-12T02:59:27;10.93;;;6.65;;
26036;SDS011;13810;48.376;10.944;2022-07-12T02:59:57;10.52;;;6.65;;
26036;SDS011;13810;48.376;10.944;2022-07-12T03:00:28;8.68;;;6.32;;
26036;SDS011;13810;48.376;10.944;2022-07-12T03:00:59;9.90;;;6.15;;
26036;SDS011;13810;48.376;10.944;2022-07-12T03:01:30;11.02;;;7.05;;
26036;SDS011;13810;48.376;10.944;2022-07-12T03:02:31;11.82;;;7.00;;
26036;SDS011;13810;48.376;10.944;2022-07-12T03:03:01;10.88;;;7.65;;
26036;SDS011;13810;48.376;10.944;2022-07-12T03:03:32;12.20;;;7.70;;
26036;SDS011;13810;48.376;10.944;2022-07-12T03:04:03;11.90;;;7.47;;
26036;SDS011;13810;48.376;10.944;2022-07-12T03:04:33;11.70;;;6.60;;